createdAt,value
2024-01-10T00:01:58.627Z,103483.78
2024-01-10T00:04:25.372Z,103477.88
2024-01-10T00:06:52.032Z,103479.78
2024-01-10T00:09:18.680Z,103480.59
2024-01-10T00:11:45.480Z,103482.47
2024-01-10T00:14:12.391Z,103478.22
2024-01-10T00:16:39.174Z,103482.59
2024-01-10T00:19:05.902Z,103484.38
2024-01-10T00:21:32.702Z,103486.16
2024-01-10T00:24:01.772Z,103477.66
2024-01-10T00:26:28.470Z,103473.41
2024-01-10T00:28:55.087Z,103468.44
2024-01-10T00:31:31.040Z,103475.28
2024-01-10T00:33:57.693Z,103465.16
2024-01-10T00:36:25.312Z,103472.94
2024-01-10T00:38:51.885Z,103462.66
2024-01-10T00:41:19.008Z,103474.00
2024-01-10T00:43:45.899Z,103470.56
2024-01-10T00:46:12.710Z,103467.28
2024-01-10T00:48:39.351Z,103469.16
2024-01-10T00:51:10.077Z,103461.38
2024-01-10T00:53:37.397Z,103462.34
2024-01-10T00:56:04.257Z,103460.66
2024-01-10T00:58:30.933Z,103450.28
2024-01-10T01:00:57.615Z,103448.66
2024-01-10T01:03:24.599Z,103455.63
2024-01-10T01:05:51.385Z,103458.22
2024-01-10T01:08:18.260Z,103456.66
2024-01-10T01:10:44.947Z,103452.31
2024-01-10T01:13:11.768Z,103455.03
2024-01-10T01:15:38.405Z,103448.16
2024-01-10T01:18:05.529Z,103456.81
2024-01-10T01:20:32.298Z,103450.91
2024-01-10T01:22:59.582Z,103448.53
2024-01-10T01:25:26.283Z,103447.72
2024-01-10T01:27:52.965Z,103451.25
2024-01-10T01:30:23.011Z,103448.66
2024-01-10T01:32:50.105Z,103450.53
2024-01-10T01:35:23.087Z,103446.31
2024-01-10T01:37:50.780Z,103441.94
2024-01-10T01:40:17.604Z,103451.50
2024-01-10T01:42:46.328Z,103444.63
2024-01-10T01:45:13.541Z,103441.34
2024-01-10T01:47:41.567Z,103436.28
2024-01-10T01:50:08.916Z,103439.69
2024-01-10T01:52:36.404Z,103429.44
2024-01-10T01:55:03.762Z,103417.41
2024-01-10T01:57:30.808Z,103424.50
2024-01-10T01:59:58.145Z,103421.75
2024-01-10T02:02:25.965Z,103429.53
2024-01-10T02:04:53.187Z,103423.53
2024-01-10T02:07:19.842Z,103428.72
2024-01-10T02:09:46.546Z,103429.53
2024-01-10T02:12:13.262Z,103433.09
2024-01-10T02:14:39.991Z,103422.72
2024-01-10T02:17:06.809Z,103425.31
2024-01-10T02:19:36.109Z,103415.84
2024-01-10T02:22:04.091Z,103404.75
2024-01-10T02:24:30.685Z,103398.75
2024-01-10T02:26:57.465Z,103396.41
2024-01-10T02:29:25.335Z,103394.63
2024-01-10T02:31:52.203Z,103402.31
2024-01-10T02:34:19.005Z,103397.34
2024-01-10T02:36:45.621Z,103389.44
2024-01-10T02:39:12.252Z,103386.13
2024-01-10T02:41:39.096Z,103387.09
2024-01-10T02:44:05.815Z,103385.53
2024-01-10T02:46:32.672Z,103387.22
2024-01-10T02:48:59.398Z,103388.16
2024-01-10T02:51:29.822Z,103393.47
2024-01-10T02:53:56.407Z,103384.03
2024-01-10T02:56:23.051Z,103393.59
2024-01-10T02:58:49.643Z,103395.38
2024-01-10T03:01:16.888Z,103392.78
2024-01-10T03:03:43.623Z,103399.72
2024-01-10T03:06:10.407Z,103392.88
2024-01-10T03:08:37.102Z,103389.47
2024-01-10T03:11:04.142Z,103392.06
2024-01-10T03:13:31.199Z,103397.25
2024-01-10T03:15:58.028Z,103382.63
2024-01-10T03:18:25.391Z,103378.38
2024-01-10T03:20:52.185Z,103376.72
2024-01-10T03:23:19.269Z,103381.91
2024-01-10T03:25:48.080Z,103377.78
2024-01-10T03:28:19.044Z,103373.41
2024-01-10T03:30:46.148Z,103376.84
2024-01-10T03:33:12.959Z,103375.19
2024-01-10T03:35:39.724Z,103382.16
2024-01-10T03:38:06.919Z,103383.91
2024-01-10T03:40:33.737Z,103374.50
2024-01-10T03:43:00.652Z,103382.38
2024-01-10T03:45:27.450Z,103379.78
2024-01-10T03:47:54.624Z,103370.47
2024-01-10T03:50:21.625Z,103381.56
2024-01-10T03:52:48.672Z,103382.50
2024-01-10T03:55:16.631Z,103368.81
2024-01-10T03:57:43.769Z,103363.78
2024-01-10T04:00:10.862Z,103358.44
2024-01-10T04:02:40.138Z,103369.88
2024-01-10T04:05:09.486Z,103368.13
2024-01-10T04:07:37.560Z,103358.81
2024-01-10T04:10:04.892Z,103358.69
2024-01-10T04:12:31.537Z,103353.50
2024-01-10T04:14:58.741Z,103350.19
2024-01-10T04:17:25.459Z,103358.00
2024-01-10T04:19:52.484Z,103361.41
2024-01-10T04:22:19.428Z,103363.28
2024-01-10T04:24:46.071Z,103359.88
2024-01-10T04:27:13.038Z,103362.59
2024-01-10T04:29:39.862Z,103364.25
2024-01-10T04:32:06.844Z,103361.75
2024-01-10T04:34:33.760Z,103361.66
2024-01-10T04:37:01.085Z,103353.16
2024-01-10T04:39:27.792Z,103355.75
2024-01-10T04:41:54.928Z,103354.09
2024-01-10T04:44:21.640Z,103359.28
2024-01-10T04:46:48.443Z,103356.69
2024-01-10T04:49:15.031Z,103348.19
2024-01-10T04:51:41.846Z,103349.97
2024-01-10T04:54:08.417Z,103346.31
2024-01-10T04:56:37.258Z,103350.78
2024-01-10T04:59:04.445Z,103348.34
2024-01-10T05:01:31.770Z,103341.38
2024-01-10T05:03:58.633Z,103336.28
2024-01-10T05:06:25.311Z,103334.66
2024-01-10T05:08:52.167Z,103338.06
2024-01-10T05:11:19.069Z,103341.59
2024-01-10T05:13:45.788Z,103331.22
2024-01-10T05:16:12.642Z,103338.88
2024-01-10T05:18:39.296Z,103339.97
2024-01-10T05:21:06.083Z,103343.25
2024-01-10T05:23:33.821Z,103339.97
2024-01-10T05:26:01.097Z,103338.28
2024-01-10T05:28:27.756Z,103333.97
2024-01-10T05:30:55.717Z,103319.31
2024-01-10T05:33:22.776Z,103327.09
2024-01-10T05:35:49.515Z,103330.66
2024-01-10T05:38:16.277Z,103332.28
2024-01-10T05:40:43.052Z,103327.34
2024-01-10T05:43:11.694Z,103320.38
2024-01-10T05:45:38.382Z,103326.50
2024-01-10T05:48:05.872Z,103318.03
2024-01-10T05:50:33.070Z,103319.69
2024-01-10T05:52:59.748Z,103323.91
2024-01-10T05:55:26.357Z,103325.81
2024-01-10T05:57:53.149Z,103327.47
2024-01-10T06:00:22.397Z,103317.91
2024-01-10T06:02:49.151Z,103319.78
2024-01-10T06:05:16.063Z,103316.38
2024-01-10T06:07:43.350Z,103315.44
2024-01-10T06:10:12.669Z,103324.16
2024-01-10T06:12:39.768Z,103328.53
2024-01-10T06:15:08.150Z,103325.09
2024-01-10T06:17:35.002Z,103328.66
2024-01-10T06:20:02.108Z,103335.59
2024-01-10T06:22:30.688Z,103327.94
2024-01-10T06:24:57.663Z,103332.16
2024-01-10T06:27:24.367Z,103328.75
2024-01-10T06:29:51.206Z,103328.75
2024-01-10T06:32:18.173Z,103327.13
2024-01-10T06:34:45.099Z,103318.50
2024-01-10T06:37:11.830Z,103321.22
2024-01-10T06:39:38.457Z,103324.75
2024-01-10T06:42:07.332Z,103323.13
2024-01-10T06:44:34.926Z,103320.53
2024-01-10T06:47:01.664Z,103324.88
2024-01-10T06:49:28.836Z,103325.00
2024-01-10T06:51:55.658Z,103325.00
2024-01-10T06:54:22.485Z,103326.88
2024-01-10T06:56:48.997Z,103324.28
2024-01-10T06:59:15.698Z,103317.56
2024-01-10T07:01:42.354Z,103327.09
2024-01-10T07:04:11.389Z,103324.66
2024-01-10T07:06:38.125Z,103322.06
2024-01-10T07:09:06.872Z,103314.41
2024-01-10T07:11:33.741Z,103320.50
2024-01-10T07:14:00.654Z,103325.69
2024-01-10T07:16:27.943Z,103334.44
2024-01-10T07:18:54.627Z,103322.41
2024-01-10T07:21:21.427Z,103321.81
2024-01-10T07:23:48.066Z,103321.22
2024-01-10T07:26:17.939Z,103323.94
2024-01-10T07:28:44.958Z,103325.91
2024-01-10T07:31:13.280Z,103331.09
2024-01-10T07:33:40.201Z,103338.66
2024-01-10T07:36:07.311Z,103334.91
2024-01-10T07:38:37.281Z,103340.69
2024-01-10T07:41:04.943Z,103332.66
2024-01-10T07:43:32.153Z,103337.38
2024-01-10T07:45:58.726Z,103340.31
2024-01-10T07:48:26.162Z,103341.50
2024-01-10T07:50:52.808Z,103339.84
2024-01-10T07:53:19.584Z,103341.00
2024-01-10T07:55:46.315Z,103340.41
2024-01-10T07:58:12.935Z,103344.16
2024-01-10T08:00:40.212Z,103359.03
2024-01-10T08:03:06.983Z,103363.75
2024-01-10T08:05:33.726Z,103362.19
2024-01-10T08:08:00.481Z,103359.91
2024-01-10T08:10:28.576Z,103360.25
2024-01-10T08:12:55.739Z,103350.31
2024-01-10T08:15:23.003Z,103349.84
2024-01-10T08:17:50.854Z,103352.75
2024-01-10T08:20:22.557Z,103354.84
2024-01-10T08:22:50.048Z,103362.28
2024-01-10T08:25:20.204Z,103348.91
2024-01-10T08:27:47.646Z,103345.81
2024-01-10T08:30:14.662Z,103346.25
2024-01-10T08:32:41.670Z,103350.00
2024-01-10T08:35:10.402Z,103345.38
2024-01-10T08:37:38.673Z,103342.38
2024-01-10T08:40:11.219Z,103339.41
2024-01-10T08:42:39.154Z,103344.22
2024-01-10T08:45:06.216Z,103330.97
2024-01-10T08:47:34.037Z,103336.59
2024-01-10T08:50:00.876Z,103345.78
2024-01-10T08:52:27.846Z,103341.03
2024-01-10T08:54:54.464Z,103330.25
2024-01-10T08:57:21.150Z,103330.66
2024-01-10T08:59:47.877Z,103319.22
2024-01-10T09:02:14.636Z,103323.31
2024-01-10T09:05:32.439Z,103334.03
2024-01-10T09:08:34.959Z,103339.63
2024-01-10T09:11:39.928Z,103340.91
2024-01-10T09:43:55.105Z,103317.63
2024-01-10T09:46:22.036Z,103318.03
2024-01-10T09:48:50.881Z,103323.66
2024-01-10T09:51:19.692Z,103326.81
2024-01-10T09:53:51.830Z,103326.41
2024-01-10T09:56:18.726Z,103322.31
2024-01-10T09:58:49.300Z,103328.91
2024-01-10T10:01:16.162Z,103331.91
2024-01-10T10:03:47.293Z,103331.66
2024-01-10T10:06:16.366Z,103330.25
2024-01-10T10:08:43.312Z,103328.19
2024-01-10T10:11:15.287Z,103321.63
2024-01-10T10:13:43.492Z,103321.06
2024-01-10T10:16:14.457Z,103321.06
2024-01-10T10:18:44.030Z,103321.47
2024-01-10T10:21:13.620Z,103322.03
2024-01-10T10:23:58.162Z,103329.41
2024-01-10T10:26:25.070Z,103327.06
2024-01-10T10:28:53.301Z,103326.94
2024-01-10T10:31:21.110Z,103318.00
2024-01-10T10:33:52.150Z,103314.16
2024-01-10T10:36:20.386Z,103315.13
2024-01-10T10:38:50.410Z,103308.78
2024-01-10T10:41:17.636Z,103305.75
2024-01-10T10:43:44.644Z,103305.31
2024-01-10T10:46:16.101Z,103298.84
2024-01-10T10:48:44.515Z,103295.81
2024-01-10T10:51:38.053Z,103312.69
2024-01-10T10:54:05.843Z,103297.44
2024-01-10T10:56:38.034Z,103300.75
2024-01-10T10:59:06.211Z,103301.13
2024-01-10T11:01:33.928Z,103300.69
2024-01-10T11:04:00.810Z,103299.16
2024-01-10T11:06:28.391Z,103304.19
2024-01-10T11:09:12.304Z,103306.41
2024-01-10T11:11:38.941Z,103304.47
2024-01-10T11:15:04.365Z,103308.13
2024-01-10T11:17:59.135Z,103302.63
2024-01-10T11:21:01.102Z,103299.72
2024-01-10T11:23:47.562Z,103293.09
2024-01-10T11:26:16.386Z,103292.94
2024-01-10T11:28:43.436Z,103287.44
2024-01-10T11:31:10.651Z,103291.53
2024-01-10T11:33:42.285Z,103291.91
2024-01-10T11:36:12.157Z,103292.16
2024-01-10T11:38:49.636Z,103280.28
2024-01-10T11:41:26.012Z,103281.25
2024-01-10T11:44:19.182Z,103275.56
2024-01-10T11:46:50.595Z,103283.94
2024-01-10T11:49:19.418Z,103280.06
2024-01-10T11:51:49.163Z,103272.75
2024-01-10T11:54:38.811Z,103280.28
2024-01-10T11:57:20.104Z,103277.38
2024-01-10T11:59:47.091Z,103275.25
2024-01-10T12:02:16.152Z,103271.38
2024-01-10T12:04:47.581Z,103263.25
2024-01-10T12:07:17.806Z,103263.13
2024-01-10T12:09:45.047Z,103261.84
2024-01-10T12:12:12.751Z,103257.94
2024-01-10T12:14:44.644Z,103257.78
2024-01-10T12:17:11.587Z,103250.59
2024-01-10T12:19:39.065Z,103251.94
2024-01-10T12:22:08.239Z,103253.13
2024-01-10T12:24:45.124Z,103245.16
2024-01-10T12:27:11.703Z,103251.53
2024-01-10T12:29:38.995Z,103243.53
2024-01-10T12:32:06.257Z,103246.81
2024-01-10T12:34:33.020Z,103240.47
2024-01-10T12:37:01.567Z,103239.50
2024-01-10T12:39:32.751Z,103240.66
2024-01-10T12:41:59.962Z,103241.19
2024-01-10T12:44:33.039Z,103236.63
2024-01-10T12:47:01.488Z,103239.09
2024-01-10T12:49:28.383Z,103233.03
2024-01-10T12:51:56.012Z,103231.75
2024-01-10T12:54:22.613Z,103219.50
2024-01-10T12:56:49.416Z,103232.09
2024-01-10T12:59:16.249Z,103226.72
2024-01-10T13:01:43.723Z,103228.34
2024-01-10T13:04:13.058Z,103232.28
2024-01-10T13:06:40.650Z,103233.94
2024-01-10T13:09:08.836Z,103236.22
2024-01-10T13:11:35.627Z,103229.22
2024-01-10T13:14:08.395Z,103224.66
2024-01-10T13:16:46.174Z,103225.31
2024-01-10T13:19:20.536Z,103227.63
2024-01-10T13:21:47.383Z,103221.56
2024-01-10T13:24:14.499Z,103216.34
2024-01-10T13:26:41.229Z,103227.28
2024-01-10T13:29:08.614Z,103225.50
2024-01-10T13:31:37.751Z,103224.66
2024-01-10T13:34:05.803Z,103223.69
2024-01-10T13:36:32.574Z,103227.78
2024-01-10T13:38:59.175Z,103222.56
2024-01-10T13:41:27.212Z,103228.47
2024-01-10T13:43:54.031Z,103225.03
2024-01-10T13:46:21.029Z,103222.56
2024-01-10T13:48:47.816Z,103229.28
2024-01-10T13:51:14.707Z,103226.50
2024-01-10T13:53:41.425Z,103228.31
2024-01-10T13:56:08.250Z,103227.16
2024-01-10T13:58:34.995Z,103225.53
2024-01-10T14:01:01.728Z,103223.75
2024-01-10T14:03:31.353Z,103211.63
2024-01-10T14:06:00.073Z,103221.44
2024-01-10T14:08:29.544Z,103223.41
2024-01-10T14:10:56.615Z,103229.47
2024-01-10T14:13:24.666Z,103219.00
2024-01-10T14:15:51.512Z,103225.72
2024-01-10T14:18:18.269Z,103217.06
2024-01-10T14:20:45.373Z,103218.84
2024-01-10T14:23:13.976Z,103230.81
2024-01-10T14:25:40.871Z,103221.31
2024-01-10T14:28:07.600Z,103221.97
2024-01-10T14:30:34.287Z,103218.69
2024-01-10T14:33:01.346Z,103224.72
2024-01-10T14:35:28.541Z,103215.25
2024-01-10T14:37:55.532Z,103223.25
2024-01-10T14:40:24.965Z,103226.88
2024-01-10T14:42:51.806Z,103231.78
2024-01-10T14:45:18.560Z,103233.72
2024-01-10T14:47:45.784Z,103229.47
2024-01-10T14:50:12.807Z,103229.47
2024-01-10T14:52:39.584Z,103231.44
2024-01-10T14:55:06.521Z,103236.66
2024-01-10T14:57:34.500Z,103240.09
2024-01-10T15:00:01.436Z,103238.44
2024-01-10T15:02:28.249Z,103246.28
2024-01-10T15:04:54.905Z,103242.22
2024-01-10T15:07:21.980Z,103250.88
2024-01-10T15:09:48.502Z,103247.44
2024-01-10T15:12:15.135Z,103246.47
2024-01-10T15:14:42.574Z,103260.53
2024-01-10T15:17:11.377Z,103241.53
2024-01-10T15:19:39.771Z,103249.41
2024-01-10T15:22:07.109Z,103250.53
2024-01-10T15:24:33.992Z,103247.41
2024-01-10T15:27:08.296Z,103243.31
2024-01-10T15:29:35.406Z,103243.47
2024-01-10T15:32:02.578Z,103254.09
2024-01-10T15:34:29.525Z,103248.19
2024-01-10T15:36:56.264Z,103260.63
2024-01-10T15:39:23.665Z,103260.78
2024-01-10T15:41:51.157Z,103264.34
2024-01-10T15:44:22.096Z,103267.13
2024-01-10T15:46:50.445Z,103264.66
2024-01-10T15:49:17.625Z,103257.13
2024-01-10T15:51:44.551Z,103255.50
2024-01-10T15:54:14.053Z,103254.81
2024-01-10T15:56:42.566Z,103256.78
2024-01-10T15:59:10.523Z,103257.06
2024-01-10T16:01:37.472Z,103263.28
2024-01-10T16:04:04.594Z,103260.00
2024-01-10T16:06:35.802Z,103265.38
2024-01-10T16:09:04.803Z,103267.34
2024-01-10T16:11:32.026Z,103263.91
2024-01-10T16:13:58.937Z,103265.19
2024-01-10T16:16:31.063Z,103276.63
2024-01-10T16:18:58.807Z,103271.56
2024-01-10T16:21:25.793Z,103273.34
2024-01-10T16:23:52.475Z,103276.94
2024-01-10T16:26:19.349Z,103269.41
2024-01-10T16:28:47.325Z,103275.44
2024-01-10T16:31:14.182Z,103276.59
2024-01-10T16:33:41.207Z,103270.69
2024-01-10T16:36:08.337Z,103274.41
2024-01-10T16:38:35.208Z,103281.44
2024-01-10T16:41:02.358Z,103288.59
2024-01-10T16:43:29.050Z,103291.34
2024-01-10T16:45:58.435Z,103291.53
2024-01-10T16:48:27.567Z,103288.25
2024-01-10T16:50:56.433Z,103295.44
2024-01-10T16:53:23.595Z,103298.31
2024-01-10T16:55:51.027Z,103302.88
2024-01-10T16:58:18.048Z,103312.81
2024-01-10T17:00:45.884Z,103306.94
2024-01-10T17:03:12.717Z,103308.03
2024-01-10T17:05:43.158Z,103307.22
2024-01-10T17:08:11.200Z,103307.38
2024-01-10T17:10:38.529Z,103308.34
2024-01-10T17:13:06.196Z,103312.78
2024-01-10T17:15:33.133Z,103306.03
2024-01-10T17:18:01.391Z,103317.31
2024-01-10T17:20:28.564Z,103315.81
2024-01-10T17:22:55.875Z,103326.13
2024-01-10T17:25:24.956Z,103324.63
2024-01-10T17:27:53.436Z,103327.53
2024-01-10T17:30:21.487Z,103332.75
2024-01-10T17:32:48.867Z,103334.56
2024-01-10T17:35:17.541Z,103332.06
2024-01-10T17:37:45.125Z,103331.13
2024-01-10T17:40:12.503Z,103334.69
2024-01-10T17:42:40.100Z,103331.25
2024-01-10T17:45:08.155Z,103337.47
2024-01-10T17:47:35.175Z,103338.56
2024-01-10T17:50:01.962Z,103346.56
2024-01-10T17:52:28.708Z,103351.13
2024-01-10T17:54:55.582Z,103349.34
2024-01-10T17:57:26.661Z,103352.75
2024-01-10T17:59:55.336Z,103348.66
2024-01-10T18:02:22.364Z,103352.09
2024-01-10T18:04:50.256Z,103352.91
2024-01-10T18:07:17.378Z,103353.75
2024-01-10T18:09:44.285Z,103355.69
2024-01-10T18:12:10.827Z,103351.41
2024-01-10T18:14:38.269Z,103359.25
2024-01-10T18:17:05.392Z,103364.63
2024-01-10T18:19:32.252Z,103362.97
2024-01-10T18:22:00.144Z,103372.44
2024-01-10T18:24:27.096Z,103372.63
2024-01-10T18:26:53.642Z,103376.19
2024-01-10T18:29:20.705Z,103372.75
2024-01-10T18:31:48.197Z,103379.59
2024-01-10T18:34:15.384Z,103378.78
2024-01-10T18:36:42.202Z,103390.06
2024-01-10T18:39:09.633Z,103393.66
2024-01-10T18:41:37.207Z,103382.53
2024-01-10T18:44:06.060Z,103381.72
2024-01-10T18:46:32.709Z,103378.44
2024-01-10T18:48:59.477Z,103387.06
2024-01-10T18:51:26.078Z,103383.94
2024-01-10T18:53:53.086Z,103388.06
2024-01-10T18:56:19.714Z,103385.59
2024-01-10T18:58:47.001Z,103390.00
2024-01-10T19:01:13.818Z,103386.53
2024-01-10T19:03:40.752Z,103395.34
2024-01-10T19:06:09.316Z,103387.66
2024-01-10T19:08:36.859Z,103396.47
2024-01-10T19:11:06.948Z,103396.47
2024-01-10T19:13:40.058Z,103403.47
2024-01-10T19:16:11.182Z,103402.78
2024-01-10T19:18:39.649Z,103402.97
2024-01-10T19:21:07.808Z,103395.94
2024-01-10T19:23:35.209Z,103403.63
2024-01-10T19:26:02.145Z,103401.97
2024-01-10T19:28:28.971Z,103399.50
2024-01-10T19:30:58.470Z,103403.91
2024-01-10T19:33:25.800Z,103404.91
2024-01-10T19:35:52.739Z,103409.44
2024-01-10T19:38:20.391Z,103406.16
2024-01-10T19:40:47.243Z,103404.50
2024-01-10T19:43:23.240Z,103411.50
2024-01-10T19:45:49.947Z,103412.63
2024-01-10T19:48:16.629Z,103412.47
2024-01-10T19:50:44.432Z,103419.47
2024-01-10T19:53:11.319Z,103413.56
2024-01-10T19:55:38.086Z,103413.44
2024-01-10T19:58:04.712Z,103406.56
2024-01-10T20:00:31.530Z,103412.75
2024-01-10T20:02:58.554Z,103416.31
2024-01-10T20:05:25.395Z,103411.94
2024-01-10T20:07:52.212Z,103424.03
2024-01-10T20:10:18.836Z,103424.84
2024-01-10T20:12:45.411Z,103431.19
2024-01-10T20:15:14.036Z,103430.66
2024-01-10T20:17:41.011Z,103426.38
2024-01-10T20:20:08.527Z,103429.97
2024-01-10T20:22:37.202Z,103437.13
2024-01-10T20:25:04.083Z,103448.53
2024-01-10T20:27:30.855Z,103445.22
2024-01-10T20:29:57.507Z,103448.16
2024-01-10T20:32:24.311Z,103451.56
2024-01-10T20:34:54.603Z,103455.28
2024-01-10T20:37:22.928Z,103464.88
2024-01-10T20:39:49.916Z,103461.59
2024-01-10T20:42:16.599Z,103462.84
2024-01-10T20:44:45.845Z,103461.22
2024-01-10T20:47:12.798Z,103458.59
2024-01-10T20:49:39.554Z,103461.22
2024-01-10T20:52:06.656Z,103465.75
2024-01-10T20:54:35.992Z,103461.47
2024-01-10T20:57:06.940Z,103470.28
2024-01-10T20:59:33.577Z,103470.41
2024-01-10T21:02:00.366Z,103472.34
2024-01-10T21:04:26.996Z,103471.78
2024-01-10T21:07:08.326Z,103475.00
2024-01-10T21:09:40.768Z,103468.81
2024-01-10T21:12:11.911Z,103469.50
2024-01-10T21:14:41.847Z,103476.09
2024-01-10T21:17:11.123Z,103463.91
2024-01-10T21:19:37.824Z,103471.59
2024-01-10T21:22:04.664Z,103472.94
2024-01-10T21:24:34.743Z,103477.19
2024-01-10T21:27:01.919Z,103479.66
2024-01-10T21:29:28.505Z,103484.59
2024-01-10T21:31:55.179Z,103480.88
2024-01-10T21:34:21.893Z,103488.41
2024-01-10T21:36:48.806Z,103494.97
2024-01-10T21:39:15.405Z,103502.38
2024-01-10T21:41:41.931Z,103492.03
2024-01-10T21:44:08.594Z,103513.28
2024-01-10T21:46:35.385Z,103511.31
2024-01-10T21:49:02.002Z,103515.03
2024-01-10T21:51:28.908Z,103511.03
2024-01-10T21:53:55.626Z,103509.50
2024-01-10T21:56:22.298Z,103512.41
2024-01-10T21:58:51.653Z,103521.25
2024-01-10T22:01:18.983Z,103505.22
2024-01-10T22:03:45.920Z,103506.44
2024-01-10T22:06:12.904Z,103508.34
2024-01-10T22:08:39.628Z,103514.75
2024-01-10T22:11:06.244Z,103513.38
2024-01-10T22:13:32.953Z,103521.41
2024-01-10T22:16:00.935Z,103526.78
2024-01-10T22:18:27.829Z,103521.00
2024-01-10T22:20:57.105Z,103524.00
2024-01-10T22:23:23.878Z,103531.91
2024-01-10T22:25:50.817Z,103533.25
2024-01-10T22:28:17.727Z,103533.75
2024-01-10T22:30:44.539Z,103524.81
2024-01-10T22:33:12.553Z,103522.31
2024-01-10T22:35:39.510Z,103538.91
2024-01-10T22:38:06.146Z,103538.06
2024-01-10T22:40:33.188Z,103538.19
2024-01-10T22:42:59.844Z,103536.81
2024-01-10T22:45:26.818Z,103546.50
2024-01-10T22:47:53.578Z,103553.50
2024-01-10T22:50:20.523Z,103545.91
2024-01-10T22:52:47.275Z,103540.84
2024-01-10T22:55:14.009Z,103541.91
2024-01-10T22:57:41.317Z,103551.50
2024-01-10T23:00:13.287Z,103549.03
2024-01-10T23:02:40.121Z,103546.69
2024-01-10T23:05:08.749Z,103540.63
2024-01-10T23:07:35.620Z,103538.28
2024-01-10T23:10:02.407Z,103545.28
2024-01-10T23:12:29.240Z,103537.59
2024-01-10T23:14:56.078Z,103544.81
2024-01-10T23:17:23.011Z,103539.88
2024-01-10T23:19:49.836Z,103543.53
2024-01-10T23:22:16.608Z,103551.31
2024-01-10T23:24:44.678Z,103559.25
2024-01-10T23:27:11.515Z,103558.56
2024-01-10T23:29:38.386Z,103555.38
2024-01-10T23:32:05.911Z,103556.34
2024-01-10T23:34:32.601Z,103564.25
2024-01-10T23:36:59.611Z,103555.75
2024-01-10T23:39:26.189Z,103554.22
2024-01-10T23:41:52.841Z,103555.28
2024-01-10T23:44:19.544Z,103561.44
2024-01-10T23:46:46.571Z,103565.09
2024-01-10T23:49:13.635Z,103564.25
2024-01-10T23:51:40.233Z,103566.16
2024-01-10T23:54:07.467Z,103563.09
2024-01-10T23:56:35.916Z,103566.19
2024-01-10T23:59:03.183Z,103564.78
